Borisov, Belarus
Current Conditions -  °F | °C
As of 3:00 AM on Sunday 21 Dec 2014 (Local Time) from UMMS Reporting Station
Broken Clouds Broken Clouds  
Wind Chill: 30°   Ceiling: 2300
Heat Index: 34°   Visibility: 6mi
Dew Point: 34°   Wind: 4mph
Humidity: 100%   Direction: 220°SW
Pressure: 29.5"   Gusts: 11mph
Location:  54.22°N, 28.51°E
Report Text: UMMS 210100Z 22002G05MPS 9999 BKN023 01/01 Q0999 R31/290060NOSIG
Loading
Personal Weather Stations






























Interactive Weather Map New forecast layout! Learn more

10-Day Weather Forecast

Advertisements
Track Severe Weather on mobile